Time;durP1;ratioP1;P1;durP2;ratioP2;P2;SDS_P1;SDS_P2;PMS_P1;PMS_P2;Temp;Humidity;BMP_temperature;BMP_pressure;BME280_temperature;BME280_humidity;BME280_pressure;Samples;Min_cycle;Max_cycle;Signal;HPM_P1;HPM_P2
2022/02/21 00:00:18;;;;;;;25.70;8.20;;;8.10;99.90;;;7.97;74.84;99522.31;5112091;28;20553;-61
2022/02/21 00:02:51;;;;;;;28.70;8.45;;;8.00;99.90;;;8.13;75.29;99554.50;5112295;28;20044;-61
2022/02/21 00:05:20;;;;;;;31.60;7.47;;;8.00;99.90;;;8.12;74.58;99553.66;5111976;28;20043;-62
2022/02/21 00:07:50;;;;;;;24.73;7.15;;;8.00;99.90;;;8.07;73.60;99538.84;5111959;28;20052;-61
2022/02/21 00:10:25;;;;;;;36.40;8.40;;;8.00;99.90;;;7.86;72.30;99541.75;5111759;28;20458;-61
2022/02/21 00:12:53;;;;;;;21.75;6.20;;;7.90;99.90;;;7.93;71.98;99535.53;5111873;28;20065;-61
2022/02/21 00:15:24;;;;;;;25.10;8.27;;;7.90;99.90;;;7.96;72.71;99570.56;5111672;28;20062;-61
2022/02/21 00:17:53;;;;;;;;;;;7.80;99.90;;;7.87;72.65;99556.69;5112278;28;20040;-61
2022/02/21 00:20:22;;;;;;;23.35;7.35;;;7.80;99.90;;;7.85;73.16;99590.94;5093489;28;19931;-61
2022/02/21 00:22:51;;;;;;;33.42;7.63;;;7.70;99.90;;;7.91;74.62;99580.31;5111647;28;20047;-62
2022/02/21 00:25:19;;;;;;;27.05;7.40;;;7.80;99.90;;;7.83;75.25;99600.59;5093496;28;20401;-61
2022/02/21 00:27:49;;;;;;;32.28;8.27;;;7.80;99.90;;;7.85;75.67;99596.19;5111704;28;20044;-61
2022/02/21 00:30:17;;;;;;;34.40;7.07;;;7.80;99.90;;;7.89;74.58;99597.91;5111597;28;20048;-61
2022/02/21 00:32:46;;;;;;;27.10;6.70;;;7.80;99.90;;;7.87;73.06;99583.00;5111532;28;20381;-62
2022/02/21 00:35:14;;;;;;;24.00;7.00;;;7.80;99.90;;;7.87;72.41;99626.00;5111347;28;20108;-62
2022/02/21 00:37:43;;;;;;;29.77;6.45;;;7.80;99.90;;;7.90;73.00;99638.22;5093284;28;20040;-61
2022/02/21 00:40:12;;;;;;;23.25;7.40;;;7.80;99.90;;;7.86;72.29;99628.63;5111449;28;20047;-62
2022/02/21 00:42:41;;;;;;;28.60;7.20;;;7.80;99.90;;;7.93;73.08;99635.56;5111491;28;20082;-61
2022/02/21 00:45:11;;;;;;;17.20;6.20;;;7.80;99.90;;;7.84;71.79;99610.22;5111354;28;20112;-62
2022/02/21 00:47:40;;;;;;;22.42;5.95;;;7.80;99.90;;;7.75;71.33;99641.06;5111260;28;20044;-61
2022/02/21 00:50:10;;;;;;;27.17;6.82;;;7.70;99.90;;;7.89;72.49;99633.88;5111291;28;20123;-61
2022/02/21 00:52:38;;;;;;;22.80;7.03;;;7.70;99.90;;;7.87;72.87;99641.78;5111332;28;20051;-61
2022/02/21 00:55:08;;;;;;;29.35;7.25;;;7.80;99.90;;;7.71;70.42;99644.63;5112358;28;20438;-61
2022/02/21 00:57:36;;;;;;;33.22;7.70;;;7.70;99.90;;;7.65;69.61;99636.81;5114921;28;20077;-61
2022/02/21 01:00:06;;;;;;;34.15;7.30;;;7.60;99.90;;;7.74;70.02;99645.44;5114899;28;20104;-62
2022/02/21 01:02:36;;;;;;;33.78;7.75;;;7.70;99.90;;;7.61;70.54;99628.09;5114910;28;20071;-61
2022/02/21 01:05:08;;;;;;;35.72;7.93;;;7.60;99.90;;;7.57;69.83;99631.63;5114772;28;20154;-61
2022/02/21 01:07:36;;;;;;;24.60;7.63;;;7.60;99.90;;;7.65;69.84;99663.13;5114831;28;20066;-61
2022/02/21 01:10:06;;;;;;;32.42;7.65;;;7.50;99.90;;;7.64;69.25;99649.13;5114733;28;20059;-61
2022/02/21 01:12:35;;;;;;;27.02;6.47;;;7.60;99.90;;;7.65;68.80;99648.22;5114883;28;20052;-62
2022/02/21 01:15:06;;;;;;;21.83;6.65;;;7.60;99.90;;;7.56;69.19;99660.59;5114594;28;20071;-61
2022/02/21 01:17:35;;;;;;;31.05;7.20;;;7.50;99.90;;;6.94;69.55;99516.72;5114596;28;20470;-61
2022/02/21 01:20:06;;;;;;;26.42;7.32;;;7.50;99.90;;;7.51;69.66;99667.69;5114596;28;20096;-61
2022/02/21 01:22:35;;;;;;;27.42;6.97;;;7.40;99.90;;;7.40;69.92;99615.19;5096046;28;20826;-61
2022/02/21 01:25:06;;;;;;;27.02;7.72;;;7.40;99.90;;;7.52;69.45;99662.41;5114418;28;20075;-61
2022/02/21 01:27:34;;;;;;;29.35;6.97;;;7.50;99.90;;;7.52;69.93;99691.34;5114395;28;20054;-61
2022/02/21 01:30:07;;;;;;;28.50;7.93;;;7.50;99.90;;;7.54;70.49;99681.69;5114747;28;20051;-61
2022/02/21 01:32:38;;;;;;;32.60;7.68;;;7.50;99.90;;;7.52;70.22;99696.59;5114294;28;20063;-61
2022/02/21 01:35:08;;;;;;;20.17;6.55;;;7.40;99.90;;;7.30;68.77;99679.31;5114349;28;20043;-61
2022/02/21 01:37:36;;;;;;;30.10;7.60;;;7.30;99.90;;;7.35;68.70;99688.03;5114233;28;20043;-61
2022/02/21 01:40:07;;;;;;;23.55;7.00;;;7.30;99.90;;;7.41;68.64;99690.59;5114171;28;20061;-61
2022/02/21 01:42:36;;;;;;;24.52;6.57;;;7.30;99.90;;;7.39;67.06;99673.97;5114249;28;20408;-61
2022/02/21 01:45:06;;;;;;;25.08;7.47;;;7.30;99.90;;;7.42;66.52;99683.56;5114088;28;20071;-61
2022/02/21 01:47:35;;;;;;;24.48;7.75;;;7.30;99.90;;;7.47;66.62;99677.34;5114019;28;20058;-61
2022/02/21 01:50:06;;;;;;;30.77;7.22;;;7.40;99.90;;;7.48;66.49;99700.16;5114226;28;20047;-62
2022/02/21 01:52:34;;;;;;;26.02;7.63;;;7.40;99.90;;;7.58;66.28;99721.97;5114107;28;20455;-61
2022/02/21 01:55:06;;;;;;;21.58;6.60;;;7.50;99.90;;;7.49;64.76;99696.63;5113902;28;20134;-61
2022/02/21 01:57:35;;;;;;;24.55;7.28;;;7.40;99.90;;;7.49;63.46;99711.56;5114075;28;20079;-62
2022/02/21 02:00:04;;;;;;;23.15;7.95;;;7.40;99.90;;;7.45;63.60;99708.09;5114354;28;20047;-65
2022/02/21 02:02:43;;;;;;;23.10;7.18;;;7.40;99.90;;;7.56;63.17;99697.44;5113943;28;20449;-67
2022/02/21 02:05:13;;;;;;;17.38;6.60;;;7.50;99.90;;;7.59;62.84;99703.53;5113887;28;20043;-65
2022/02/21 02:07:42;;;;;;;19.20;7.03;;;7.50;99.90;;;7.59;62.92;99690.38;5095821;28;20473;-63
2022/02/21 02:10:13;;;;;;;22.77;6.63;;;7.60;99.90;;;7.69;64.37;99715.69;5113955;28;20047;-61
2022/02/21 02:12:42;;;;;;;24.40;7.15;;;7.60;99.90;;;7.68;64.55;99692.03;5114021;28;20096;-61
2022/02/21 02:15:14;;;;;;;30.13;6.88;;;7.60;99.90;;;7.59;65.17;99716.69;5113886;28;20120;-64
2022/02/21 02:17:43;;;;;;;25.02;6.53;;;7.50;99.90;;;7.50;65.88;99672.06;5113915;28;20047;-61
2022/02/21 02:20:16;;;;;;;31.67;7.97;;;7.50;99.90;;;7.60;65.97;99710.56;5113659;28;20055;-61
2022/02/21 02:22:47;;;;;;;28.20;7.30;;;7.50;99.90;;;7.73;66.25;99706.88;5113519;28;20105;-61
2022/02/21 02:25:16;;;;;;;20.88;6.35;;;7.60;99.90;;;7.53;64.31;99681.69;5113455;28;20067;-61
2022/02/21 02:27:46;;;;;;;26.52;7.35;;;7.50;99.90;;;7.37;63.93;99691.53;5113346;28;20040;-61
2022/02/21 02:30:14;;;;;;;28.52;7.45;;;7.30;99.90;;;7.42;64.25;99700.22;5113267;28;20098;-61
2022/02/21 02:32:46;;;;;;;29.95;7.50;;;7.30;99.90;;;7.42;65.27;99668.66;5113263;28;20481;-61
2022/02/21 02:35:14;;;;;;;25.48;7.60;;;7.30;99.90;;;7.39;65.85;99718.69;5113387;28;20066;-61
2022/02/21 02:37:43;;;;;;;34.13;8.00;;;7.30;99.90;;;7.46;65.94;99704.56;5113235;28;20052;-63
2022/02/21 02:40:15;;;;;;;35.60;7.82;;;7.40;99.90;;;7.34;65.22;99712.56;5113140;28;20056;-61
2022/02/21 02:42:43;;;;;;;24.80;7.43;;;7.40;99.90;;;7.31;63.67;99710.00;5113427;28;20047;-61
2022/02/21 02:45:12;;;;;;;33.83;7.32;;;7.30;99.90;;;6.93;63.70;99638.53;5113049;28;20031;-61
2022/02/21 02:47:40;;;;;;;24.88;7.63;;;7.20;99.90;;;7.23;63.57;99724.97;5113031;28;20040;-61
2022/02/21 02:50:10;;;;;;;29.98;7.72;;;7.20;99.90;;;7.36;64.29;99742.34;5113137;28;20438;-61
2022/02/21 02:52:38;;;;;;;36.00;8.50;;;7.30;99.90;;;7.29;64.54;99731.03;5113089;28;20065;-61
2022/02/21 02:55:08;;;;;;;40.05;8.95;;;7.20;99.90;;;7.37;64.49;99720.44;5112831;28;20043;-61
2022/02/21 02:57:38;;;;;;;32.00;8.50;;;7.30;99.90;;;7.35;64.79;99727.47;5094726;28;20093;-63
2022/02/21 03:00:13;;;;;;;32.13;7.43;;;7.30;99.90;;;7.33;65.16;99737.16;5112964;28;20089;-61
2022/02/21 03:02:41;;;;;;;26.50;7.70;;;7.30;99.90;;;7.37;63.84;99733.59;5112792;28;20466;-60
2022/02/21 03:05:10;;;;;;;23.95;7.57;;;7.30;99.90;;;7.39;64.13;99721.31;5112970;28;20138;-62
2022/02/21 03:07:38;;;;;;;33.47;8.65;;;7.30;99.90;;;7.32;64.87;99734.53;5112517;28;20075;-61
2022/02/21 03:10:08;;;;;;;30.25;7.72;;;7.30;99.90;;;7.37;65.40;99730.97;5112704;28;20060;-61
2022/02/21 03:12:37;;;;;;;31.55;8.43;;;7.30;99.90;;;7.32;64.44;99734.53;5094241;28;20578;-61
2022/02/21 03:15:08;;;;;;;31.07;7.53;;;7.30;99.90;;;7.31;63.90;99728.41;5112462;28;20082;-61
2022/02/21 03:17:36;;;;;;;34.63;8.52;;;7.30;99.90;;;7.38;64.88;99745.84;5112149;28;20059;-62
2022/02/21 03:20:06;;;;;;;28.08;7.65;;;7.30;99.90;;;7.17;64.04;99704.88;5112258;28;20074;-61
2022/02/21 03:22:34;;;;;;;28.75;6.72;;;7.20;99.90;;;7.16;62.99;99726.75;5112383;28;20141;-61
2022/02/21 03:25:03;;;;;;;26.58;8.23;;;7.10;99.90;;;7.19;63.20;99741.66;5112238;28;20075;-61
2022/02/21 03:27:31;;;;;;;23.00;7.45;;;7.10;99.90;;;7.13;63.25;99712.78;5112211;28;20050;-61
2022/02/21 03:30:01;;;;;;;27.95;8.18;;;7.10;99.90;;;7.09;63.48;99745.25;5112589;28;20071;-61
2022/02/21 03:32:30;;;;;;;32.73;7.93;;;7.00;99.90;;;7.14;63.38;99723.28;5093729;28;20577;-61
2022/02/21 03:34:58;;;;;;;29.98;8.60;;;7.10;99.90;;;7.18;64.96;99732.88;5112450;28;20075;-61
2022/02/21 03:37:26;;;;;;;26.88;8.00;;;7.10;99.90;;;7.15;62.58;99734.69;5112078;28;20048;-61
2022/02/21 03:39:55;;;;;;;23.05;6.72;;;7.10;99.90;;;7.10;62.23;99725.97;5112062;28;20043;-61
2022/02/21 03:42:23;;;;;;;27.42;6.82;;;7.00;99.90;;;7.01;62.93;99710.25;5112060;28;20114;-61
2022/02/21 03:44:51;;;;;;;24.73;7.47;;;7.00;99.90;;;7.11;64.30;99751.34;5112272;28;20063;-61
2022/02/21 03:47:21;;;;;;;28.63;7.18;;;7.00;99.90;;;7.13;65.02;99734.69;5111879;28;20124;-61
2022/02/21 03:49:49;;;;;;;26.73;6.70;;;7.10;99.90;;;7.26;65.64;99749.47;5112371;28;20055;-61
2022/02/21 03:52:18;;;;;;;25.17;6.82;;;7.10;99.90;;;7.17;64.77;99736.41;5111878;28;20131;-61
2022/02/21 03:54:46;;;;;;;25.77;7.45;;;7.10;99.90;;;7.22;64.52;99738.97;5111942;28;20130;-61
2022/02/21 03:57:16;;;;;;;25.60;7.13;;;7.10;99.90;;;7.20;64.22;99727.63;5111769;28;20050;-62
2022/02/21 03:59:45;;;;;;;30.30;6.93;;;7.10;99.90;;;7.23;64.13;99735.47;5112220;28;20126;-61
2022/02/21 04:02:13;;;;;;;24.30;6.50;;;7.10;99.90;;;7.20;63.79;99735.53;5111941;28;20047;-60
2022/02/21 04:04:43;;;;;;;23.92;7.45;;;7.10;99.90;;;7.16;63.28;99733.81;5111976;28;20476;-61
2022/02/21 04:07:12;;;;;;;;;;;7.10;99.90;;;7.09;63.16;99726.84;5112471;28;20047;-61
2022/02/21 04:09:40;;;;;;;23.73;7.38;;;7.00;99.90;;;7.18;63.55;99732.88;5111820;28;20006;-61
2022/02/21 04:12:10;;;;;;;25.88;6.32;;;7.10;99.90;;;7.09;64.08;99708.44;5111614;28;20072;-61
2022/02/21 04:14:38;;;;;;;29.10;7.35;;;7.10;99.90;;;7.15;64.71;99729.41;5111779;28;20192;-61
2022/02/21 04:17:07;;;;;;;21.80;7.28;;;7.10;99.90;;;7.12;65.46;99721.56;5111687;28;20075;-63
2022/02/21 04:19:35;;;;;;;26.88;7.38;;;7.10;99.90;;;7.09;66.07;99729.47;5111832;28;20442;-61
2022/02/21 04:22:09;;;;;;;33.38;7.60;;;7.00;99.90;;;7.06;66.56;99748.78;5111575;28;20066;-60
2022/02/21 04:24:37;;;;;;;28.80;7.85;;;7.00;99.90;;;6.99;67.23;99747.06;5111542;28;20071;-61
2022/02/21 04:27:06;;;;;;;38.33;8.57;;;6.90;99.90;;;6.94;67.34;99727.84;5111532;28;20044;-61
2022/02/21 04:29:34;;;;;;;30.92;7.68;;;7.00;99.90;;;6.84;66.90;99731.44;5112005;28;20057;-61
2022/02/21 04:32:07;;;;;;;29.75;8.38;;;6.80;99.90;;;6.86;66.88;99734.94;5115578;28;20485;-61
2022/02/21 04:34:35;;;;;;;19.95;7.72;;;6.80;99.90;;;6.85;66.43;99701.63;5115717;28;20040;-61
2022/02/21 04:37:05;;;;;;;24.95;7.22;;;6.80;99.90;;;6.89;66.63;99732.25;5115609;28;20214;-60
2022/02/21 04:39:33;;;;;;;24.33;7.30;;;6.90;99.90;;;6.98;66.81;99733.94;5115702;28;20092;-61
2022/02/21 04:42:02;;;;;;;22.55;7.75;;;6.90;99.90;;;7.08;66.70;99751.41;5097379;28;20078;-61
2022/02/21 04:44:30;;;;;;;24.33;7.70;;;7.00;99.90;;;7.00;66.46;99746.22;5115549;28;20202;-61
2022/02/21 04:46:58;;;;;;;26.65;7.07;;;6.90;99.90;;;7.09;66.37;99737.34;5115815;28;20077;-60
2022/02/21 04:49:29;;;;;;;34.03;8.07;;;7.00;99.90;;;7.08;66.44;99722.47;5115274;28;20501;-60
2022/02/21 04:51:58;;;;;;;26.08;7.13;;;7.00;99.90;;;7.10;65.50;99723.34;5115250;28;20501;-60
2022/02/21 04:54:28;;;;;;;27.95;8.02;;;7.00;99.90;;;7.06;65.51;99724.25;5115385;28;20139;-61
2022/02/21 04:56:56;;;;;;;27.45;8.00;;;7.00;99.90;;;6.85;65.64;99704.25;5096909;28;20096;-61
2022/02/21 04:59:25;;;;;;;31.65;8.20;;;6.90;99.90;;;6.98;66.39;99718.19;5115261;28;20405;-60
2022/02/21 05:01:53;;;;;;;27.25;8.18;;;6.90;99.90;;;6.99;66.50;99718.16;5115183;28;20079;-61
2022/02/21 05:04:22;;;;;;;27.65;7.78;;;6.90;99.90;;;6.98;66.28;99694.53;5115045;28;20086;-59
2022/02/21 05:06:51;;;;;;;28.75;7.80;;;6.90;99.90;;;7.00;66.15;99721.66;5115396;28;20411;-59
2022/02/21 05:09:19;;;;;;;27.92;8.00;;;6.90;99.90;;;6.94;66.38;99724.34;5115226;28;20127;-63
2022/02/21 05:11:49;;;;;;;36.30;8.27;;;6.90;99.90;;;6.91;65.71;99679.72;5114968;28;20130;-59
2022/02/21 05:14:17;;;;;;;27.70;7.50;;;6.90;99.90;;;6.99;65.40;99672.59;5114990;28;20078;-61
2022/02/21 05:16:45;;;;;;;25.38;7.95;;;6.90;99.90;;;7.12;65.89;99688.25;5114690;28;20809;-60
2022/02/21 05:19:14;;;;;;;25.95;7.28;;;7.00;99.90;;;7.07;65.32;99665.50;5114729;28;20047;-60
2022/02/21 05:21:42;;;;;;;26.48;8.05;;;7.00;99.90;;;7.11;65.21;99680.38;5114833;28;20126;-59
2022/02/21 05:24:10;;;;;;;29.23;8.20;;;7.10;99.90;;;7.05;65.00;99673.44;5114700;28;20093;-60
2022/02/21 05:26:39;;;;;;;23.42;7.65;;;7.00;99.90;;;7.11;64.25;99669.88;5114633;28;20051;-60
2022/02/21 05:29:09;;;;;;;21.83;7.13;;;7.00;99.90;;;7.12;64.69;99688.25;5096286;28;20055;-61
2022/02/21 05:31:37;;;;;;;24.33;7.65;;;7.00;99.90;;;7.20;65.54;99683.78;5114522;28;20138;-60
2022/02/21 05:34:05;;;;;;;20.90;7.28;;;7.10;99.90;;;7.24;66.08;99679.34;5114487;28;20039;-59
2022/02/21 05:36:34;;;;;;;28.20;7.40;;;7.20;99.90;;;7.23;66.07;99677.63;5114549;28;20097;-59
2022/02/21 05:39:02;;;;;;;25.13;7.25;;;7.20;99.90;;;7.11;66.08;99673.38;5114489;28;20043;-60
2022/02/21 05:41:31;;;;;;;29.50;8.52;;;7.10;99.90;;;7.13;65.90;99671.59;5114012;28;20134;-59
2022/02/21 05:44:01;;;;;;;27.90;8.18;;;7.00;99.90;;;7.08;65.54;99665.50;5096218;28;20063;-61
2022/02/21 05:46:31;;;;;;;24.85;7.70;;;7.00;99.90;;;7.05;65.94;99667.28;5114653;28;20494;-60
2022/02/21 05:49:00;;;;;;;27.25;8.25;;;7.00;99.90;;;7.11;66.20;99670.75;5114228;28;20075;-59
2022/02/21 05:51:28;;;;;;;30.85;7.43;;;7.00;99.90;;;7.11;65.89;99667.22;5114152;28;20039;-60
2022/02/21 05:53:56;;;;;;;25.17;7.38;;;7.00;99.90;;;7.04;65.67;99629.63;5114115;28;20370;-59
2022/02/21 05:56:25;;;;;;;21.08;7.22;;;7.00;99.90;;;6.99;66.08;99662.09;5113869;28;20041;-59
2022/02/21 05:58:53;;;;;;;27.00;7.63;;;6.90;99.90;;;6.99;66.43;99636.69;5113870;28;20067;-59
2022/02/21 06:01:21;;;;;;;28.23;7.57;;;6.90;99.90;;;6.94;66.84;99646.38;5113856;28;20046;-60
2022/02/21 06:03:51;;;;;;;31.75;8.07;;;6.90;99.90;;;7.00;67.06;99653.34;5113759;28;20047;-60
2022/02/21 06:06:20;;;;;;;30.92;8.05;;;6.90;99.90;;;6.89;66.91;99615.78;5113708;28;20087;-60
2022/02/21 06:08:48;;;;;;;27.20;6.80;;;6.90;99.90;;;6.99;66.03;99651.56;5113710;28;20054;-60
2022/02/21 06:11:16;;;;;;;26.33;8.32;;;6.90;99.90;;;7.02;65.90;99630.53;5113657;28;20431;-59
2022/02/21 06:13:45;;;;;;;22.40;7.53;;;6.90;99.90;;;7.09;66.74;99646.22;5114070;28;20139;-60
2022/02/21 06:16:13;;;;;;;30.25;7.88;;;7.00;99.90;;;6.99;67.25;99649.81;5113637;28;20071;-60
2022/02/21 06:18:41;;;;;;;29.33;8.13;;;6.90;99.90;;;7.10;67.47;99647.94;5113458;28;20369;-60
2022/02/21 06:21:11;;;;;;;35.78;8.90;;;7.00;99.90;;;7.06;67.07;99648.03;5113473;28;20035;-60
2022/02/21 06:23:39;;;;;;;23.57;7.13;;;7.00;99.90;;;7.08;66.63;99643.63;5113350;28;20043;-60
2022/02/21 06:26:08;;;;;;;31.65;8.38;;;7.00;99.90;;;6.28;67.09;99498.16;5113458;28;20071;-60
2022/02/21 06:28:36;;;;;;;32.50;8.13;;;7.00;99.90;;;7.12;67.55;99640.06;5113476;28;20105;-59
2022/02/21 06:31:08;;;;;;;48.45;8.75;;;7.00;99.90;;;7.20;67.96;99646.13;5113331;28;20051;-61
2022/02/21 06:33:37;;;;;;;30.02;8.05;;;7.10;99.90;;;7.20;67.52;99635.59;5113210;28;20069;-60
2022/02/21 06:36:06;;;;;;;27.35;7.68;;;7.10;99.90;;;7.13;68.06;99631.28;5113026;28;20134;-60
2022/02/21 06:38:39;;;;;;;30.92;8.13;;;7.10;99.90;;;7.18;67.79;99626.88;5113234;28;20138;-60
2022/02/21 06:41:08;;;;;;;24.98;7.70;;;7.10;99.90;;;7.17;67.56;99635.63;5094848;28;20394;-59
2022/02/21 06:43:36;;;;;;;32.55;7.32;;;7.10;99.90;;;7.19;68.57;99640.00;5113373;28;20130;-59
2022/02/21 06:46:04;;;;;;;31.92;7.82;;;7.10;99.90;;;7.14;68.86;99622.53;5112878;28;20126;-59
2022/02/21 06:48:33;;;;;;;25.25;7.80;;;7.10;99.90;;;7.08;69.20;99619.97;5112562;28;20051;-61
2022/02/21 06:51:02;;;;;;;28.90;7.30;;;7.00;99.90;;;7.19;68.41;99626.84;5112866;28;20051;-60
2022/02/21 06:53:30;;;;;;;34.03;6.85;;;7.10;99.90;;;7.00;69.10;99598.13;5112377;28;20071;-59
2022/02/21 06:56:00;;;;;;;31.20;8.15;;;7.10;99.90;;;7.15;69.43;99608.47;5113214;28;20048;-59
2022/02/21 06:58:29;;;;;;;26.27;7.55;;;7.00;99.90;;;7.20;69.23;99625.09;5112674;28;20036;-60
2022/02/21 07:00:57;;;;;;;32.63;8.27;;;7.10;99.90;;;7.08;69.24;99589.25;5112942;28;20135;-60
2022/02/21 07:03:26;;;;;;;27.38;7.38;;;7.10;99.90;;;7.25;69.60;99613.63;5112489;28;20112;-60
2022/02/21 07:05:54;;;;;;;39.63;7.18;;;7.20;99.90;;;7.21;69.50;99617.19;5112581;28;20075;-60
2022/02/21 07:08:23;;;;;;;27.60;8.55;;;7.10;99.90;;;7.30;68.98;99598.66;5112531;28;20063;-59
2022/02/21 07:10:52;;;;;;;30.02;7.32;;;7.20;99.90;;;7.23;69.18;99601.38;5112413;28;20040;-60
2022/02/21 07:13:22;;;;;;;32.88;8.07;;;7.20;99.90;;;7.34;69.06;99593.38;5093956;28;20527;-59
2022/02/21 07:15:50;;;;;;;35.90;8.10;;;7.20;99.90;;;7.38;69.17;99595.94;5112315;28;20091;-59
2022/02/21 07:18:18;;;;;;;26.63;7.75;;;7.30;99.90;;;7.49;69.20;99594.03;5112409;28;20035;-59
2022/02/21 07:20:47;;;;;;;26.52;7.38;;;7.30;99.90;;;7.50;69.11;99582.63;5112754;28;20111;-60
2022/02/21 07:23:15;;;;;;;32.00;8.25;;;7.40;99.90;;;7.69;69.63;99602.53;5112377;28;20066;-60
2022/02/21 07:25:43;;;;;;;38.67;8.02;;;7.50;99.90;;;7.76;69.42;99601.56;5112296;28;20082;-59
2022/02/21 07:28:12;;;;;;;34.42;8.13;;;7.60;99.90;;;7.99;68.91;99591.56;5112235;28;20062;-59
2022/02/21 07:30:42;;;;;;;25.88;7.18;;;7.80;99.90;;;7.88;68.27;99568.94;5112547;28;20069;-60
2022/02/21 07:33:11;;;;;;;30.38;8.30;;;7.80;99.90;;;7.87;68.42;99591.78;5112396;28;20067;-62
2022/02/21 07:35:43;;;;;;;27.40;7.38;;;7.80;99.90;;;7.81;69.15;99588.34;5112254;28;20048;-62
2022/02/21 07:38:12;;;;;;;34.97;8.35;;;7.70;99.90;;;7.76;69.78;99577.88;5112081;28;20109;-61
2022/02/21 07:40:40;;;;;;;33.95;8.63;;;7.70;99.90;;;7.71;70.03;99570.94;5111955;28;20066;-61
2022/02/21 07:43:09;;;;;;;35.10;9.02;;;7.60;99.90;;;7.65;71.10;99573.66;5111962;28;20079;-61
2022/02/21 07:45:37;;;;;;;39.97;8.70;;;7.50;99.90;;;7.74;71.66;99582.28;5093820;28;20515;-63
2022/02/21 07:48:07;;;;;;;42.40;8.40;;;7.50;99.90;;;7.64;72.28;99541.22;5111953;28;20147;-61
2022/02/21 07:50:36;;;;;;;31.88;8.40;;;7.50;99.90;;;7.54;73.25;99563.28;5111983;28;20043;-61
2022/02/21 07:53:04;;;;;;;42.45;10.25;;;7.40;99.90;;;7.56;74.19;99573.78;5112059;28;20048;-63
2022/02/21 07:55:33;;;;;;;39.78;8.75;;;7.40;99.90;;;7.56;74.97;99556.25;5112166;28;20046;-61
2022/02/21 07:58:01;;;;;;;48.10;10.23;;;7.40;99.90;;;7.50;76.17;99551.06;5111915;28;20050;-61
2022/02/21 08:00:30;;;;;;;41.03;9.70;;;7.40;99.90;;;7.49;77.00;99549.31;5093890;28;20109;-61
2022/02/21 08:02:58;;;;;;;35.67;8.80;;;7.40;99.90;;;7.40;77.73;99510.00;5112078;28;20058;-62
2022/02/21 08:05:28;;;;;;;36.22;8.60;;;7.30;99.90;;;7.38;77.77;99545.97;5115786;28;20071;-58
2022/02/21 08:07:57;;;;;;;31.03;8.63;;;7.30;99.90;;;7.37;79.11;99544.25;5116376;28;20084;-60
2022/02/21 08:10:26;;;;;;;37.30;8.52;;;7.20;99.90;;;7.30;79.52;99517.13;5116040;28;20131;-60
2022/02/21 08:12:54;;;;;;;40.80;9.18;;;7.20;99.90;;;7.28;80.27;99504.88;5116103;28;20147;-59
2022/02/21 08:15:23;;;;;;;40.95;9.18;;;7.20;99.90;;;7.25;80.67;99513.72;5115916;28;20063;-59
2022/02/21 08:17:51;;;;;;;35.80;8.93;;;7.10;99.90;;;7.20;81.23;99473.44;5115853;28;20467;-59
2022/02/21 08:20:24;;;;;;;43.00;9.77;;;7.10;99.90;;;7.19;81.37;99500.63;5115774;28;20081;-60
2022/02/21 08:22:54;;;;;;;42.15;10.02;;;7.10;99.90;;;7.24;81.75;99484.78;5097697;28;20101;-58
2022/02/21 08:25:23;;;;;;;33.97;9.45;;;7.10;99.90;;;7.27;82.38;99475.13;5097387;28;20500;-59
2022/02/21 08:27:52;;;;;;;36.45;9.32;;;7.10;99.90;;;7.25;82.37;99481.28;5115669;28;20079;-59
2022/02/21 08:30:23;;;;;;;44.88;9.55;;;7.10;99.90;;;7.28;82.04;99471.59;5115679;28;20077;-62
2022/02/21 08:32:52;;;;;;;36.60;8.57;;;7.20;99.90;;;7.25;81.79;99452.34;5115660;28;20120;-61
2022/02/21 08:35:21;;;;;;;42.03;9.55;;;7.10;99.90;;;7.28;82.25;99460.19;5115567;28;20043;-61
2022/02/21 08:37:50;;;;;;;53.33;9.52;;;7.20;99.90;;;7.30;82.03;99458.41;5115531;28;20119;-59
2022/02/21 08:40:21;;;;;;;43.00;10.32;;;7.20;99.90;;;7.32;81.84;99446.09;5115640;28;20075;-60
2022/02/21 08:42:49;;;;;;;51.00;10.27;;;7.20;99.90;;;7.36;82.03;99466.22;5115750;28;20101;-60
2022/02/21 08:45:18;;;;;;;39.42;8.98;;;7.20;99.90;;;7.37;82.08;99449.56;5115552;28;20048;-60
2022/02/21 08:47:47;;;;;;;45.70;10.10;;;7.20;99.90;;;7.25;81.16;99434.81;5115494;28;20116;-61
2022/02/21 08:50:15;;;;;;;45.95;10.02;;;7.20;99.90;;;7.38;81.24;99446.03;5115299;28;20031;-61
2022/02/21 08:52:44;;;;;;;51.55;10.18;;;7.30;99.90;;;7.52;80.93;99448.44;5115242;28;20043;-60
2022/02/21 08:55:16;;;;;;;45.00;9.73;;;7.40;99.90;;;7.55;80.50;99457.16;5115203;28;20065;-61
2022/02/21 08:57:47;;;;;;;39.25;9.93;;;7.40;99.90;;;7.57;79.88;99458.00;5115194;28;20071;-61
2022/02/21 09:00:17;;;;;;;43.78;10.40;;;7.40;99.90;;;7.66;80.02;99431.56;5115143;28;20027;-60
2022/02/21 09:02:47;;;;;;;39.63;9.30;;;7.50;99.90;;;7.66;79.76;99426.31;5115187;28;20044;-60
2022/02/21 09:05:34;;;;;;;40.10;10.48;;;7.50;99.90;;;7.69;80.03;99434.13;5115123;28;20093;-63
2022/02/21 09:08:03;;;;;;;45.05;9.98;;;7.60;99.90;;;7.54;79.42;99373.00;5115069;28;20039;-61
2022/02/21 09:10:32;;;;;;;44.08;9.75;;;7.60;99.90;;;7.76;79.34;99419.97;5114632;28;20047;-61
2022/02/21 09:13:02;;;;;;;51.28;9.85;;;7.60;99.90;;;7.78;80.35;99433.97;5114997;28;20051;-60
2022/02/21 09:15:31;;;;;;;53.63;10.65;;;7.60;99.90;;;7.67;80.72;99392.94;5114156;28;20127;-61
2022/02/21 09:18:02;;;;;;;41.78;9.93;;;7.60;99.90;;;7.66;81.85;99421.06;5114676;28;20393;-60
2022/02/21 09:20:31;;;;;;;59.85;10.90;;;7.60;99.90;;;7.77;81.57;99421.72;5114736;28;20077;-63
2022/02/21 09:22:59;;;;;;;53.30;10.30;;;7.60;99.90;;;7.64;81.58;99385.13;5114585;28;20040;-61
2022/02/21 09:25:28;;;;;;;55.60;10.73;;;7.60;99.90;;;7.74;81.87;99400.72;5114655;28;20094;-61
2022/02/21 09:27:56;;;;;;;43.63;10.80;;;7.60;99.90;;;7.78;81.57;99367.34;5114583;28;20043;-61
2022/02/21 09:30:27;;;;;;;48.35;10.63;;;7.70;99.90;;;7.75;82.60;99391.94;5114463;28;20423;-60
2022/02/21 09:32:55;;;;;;;45.00;10.63;;;7.60;99.90;;;7.77;82.82;99392.78;5114738;28;20082;-63
2022/02/21 09:35:24;;;;;;;46.88;9.88;;;7.60;99.90;;;7.69;83.33;99405.19;5114343;28;20454;-60
2022/02/21 09:37:53;;;;;;;44.00;9.75;;;7.60;99.90;;;7.63;83.46;99412.31;5096138;28;20100;-61
2022/02/21 09:40:21;;;;;;;38.33;9.93;;;7.50;99.90;;;7.67;83.29;99412.25;5114181;28;20440;-60
2022/02/21 09:42:50;;;;;;;51.65;10.93;;;7.50;99.90;;;7.57;84.07;99378.25;5114334;28;20039;-61
2022/02/21 09:45:19;;;;;;;45.10;9.88;;;7.50;99.90;;;7.59;83.66;99386.97;5114205;28;20039;-61
2022/02/21 09:47:52;;;;;;;47.83;10.75;;;7.50;99.90;;;7.59;84.13;99394.88;5113949;28;20079;-61
2022/02/21 09:50:37;;;;;;;50.58;11.05;;;7.40;99.90;;;7.59;84.26;99390.44;5114311;28;20044;-60
2022/02/21 09:53:05;;;;;;;44.88;10.82;;;7.50;99.90;;;7.69;83.67;99378.88;5114350;28;20077;-61
2022/02/21 09:55:36;;;;;;;43.95;10.30;;;7.60;99.90;;;7.69;83.77;99370.13;5114238;28;20086;-62
2022/02/21 09:58:05;;;;;;;43.80;9.88;;;7.60;99.90;;;7.76;83.27;99388.41;5095588;28;20055;-61
2022/02/21 10:00:34;;;;;;;55.30;11.57;;;7.60;99.90;;;7.96;83.19;99383.66;5113606;28;20040;-60
2022/02/21 10:03:04;;;;;;;45.33;10.73;;;7.80;99.90;;;8.02;82.36;99409.00;5113999;28;20050;-60
2022/02/21 10:05:33;;;;;;;51.30;10.18;;;7.90;99.90;;;8.05;82.07;99386.13;5113874;28;20050;-60
2022/02/21 10:08:08;;;;;;;56.45;11.75;;;7.90;99.90;;;8.12;82.32;99410.59;5113748;28;20394;-60
2022/02/21 10:10:38;;;;;;;60.05;11.23;;;8.00;99.90;;;8.23;83.26;99393.69;5113696;28;20362;-60
2022/02/21 10:13:07;;;;;;;46.53;10.47;;;8.10;99.90;;;8.16;82.95;99407.88;5113547;28;20051;-61
2022/02/21 10:15:38;;;;;;;46.80;10.80;;;8.10;99.90;;;8.32;82.74;99395.34;5113450;28;20480;-61
2022/02/21 10:18:13;;;;;;;43.50;10.02;;;8.20;99.90;;;8.31;82.35;99295.25;5113577;28;20051;-63
2022/02/21 10:20:57;;;;;;;44.45;10.38;;;8.20;99.90;;;8.32;82.53;99387.44;5113464;28;20143;-60
2022/02/21 10:23:30;;;;;;;43.13;10.32;;;8.20;99.90;;;8.31;82.77;99395.34;5113312;28;20046;-60
2022/02/21 10:26:03;;;;;;;46.45;9.65;;;8.20;99.90;;;8.38;82.54;99391.72;5113485;28;20048;-59
2022/02/21 10:28:37;;;;;;;46.90;10.15;;;8.20;99.90;;;8.34;82.85;99403.19;5112359;28;20048;-60
2022/02/21 10:31:11;;;;;;;45.80;10.30;;;8.20;99.90;;;8.36;82.52;99399.66;5113432;28;20039;-60
2022/02/21 10:33:48;;;;;;;46.90;11.30;;;8.30;99.90;;;8.41;83.12;99412.72;5113301;28;20115;-61